Aeroporto :
LOGIN :

Iscrizione | Disclaimer

   EN    FR    IT 

 










Sommario :    VFR   VFR Marginale   IFR   IFR Intensivo   IFR Molto Intensivo
Visibilità : 
Base nubi : 
>= 8 km
>= 3000ft
5 / 8 km
1000 / 3000 ft
1500m / 5 km
500 / 1000 ft
800 / 1500m
200 / 500 ft
< 800m
< 200 ft
Simboli :   Temporali  Nebbia  Neve Forte  Precipitazioni Forti  Vento > 20 kt
SIGMETs :   Varie  Temporali  Ghiacco  Turbolenza  Onda orograficha  Ceneri Vulcaniche






- Altitudine del aeroporto : 1548 ft


LKNA - Náměšť Air Base

ULTIMO METAR :
  • 261730Z 33009KT 9999 FEW033 SCT080 13/06 Q1031 NOSIG RMK BLU BLU

METARs OBSOLETI :
  • 261700Z 33011KT 9999 FEW033 BKN090 13/06 Q1031 NOSIG RMK BLU BLU
  • 261630Z 35010KT 9999 FEW033 BKN080 14/06 Q1030 NOSIG RMK BLU BLU
  • 261600Z 35014KT 9999 FEW033 BKN080 14/06 Q1030 NOSIG RMK BLU BLU
  • 261530Z 34012KT 310V030 9999 SCT033 BKN070 14/06 Q1030 NOSIG RMK BLU BLU
  • 261500Z 34015KT 9999 SCT031 SCT090 15/06 Q1030 NOSIG RMK BLU BLU
  • 261430Z 33013KT 9999 FEW030 SCT080 14/06 Q1030 NOSIG RMK BLU BLU

TAF TAF LKNA
Valido dal 26 a 12 ore il 27 a 12 ore UTC


261100Z 2612/2712 35010KT 9999 BKN025
TEMPO 2612/2616 36012G24KT 7000 SHRA SCT020TCU BKN030
PROB30
TEMPO 2612/2614 5000 TSRA BKN017CB
BECMG 2616/2618 35008KT CAVOK



MetMap, La meteo Aeronautica in un colpo d'occhio ! - Copyright ORBIFLY Dicembre 2007 - Disclaimer

ORBIFLY MET'MAP TEAM :

Programmazione e sviluppo : Alexandra Zaïnal
Concezione : Baudouin d'Aumeries
Aiuto per la programmazione : Marc-Olivier Méhu
Supporto tecnico e logistico : Manuel Goepfert
Aiuto per la traduzione : Arnaldo La Scala

Contatto : metmap@orbifly.com




FONTI E CREDITI :

   NOAA